sensor_id;sensor_type;location;lat;lon;timestamp;P1;durP1;ratioP1;P2;durP2;ratioP2
72924;SDS011;61070;50.794;7.054;2022-08-19T00:00:18;13.20;;;10.02;;
72924;SDS011;61070;50.794;7.054;2022-08-19T00:02:44;15.27;;;10.45;;
72924;SDS011;61070;50.794;7.054;2022-08-19T00:05:12;17.38;;;10.98;;
72924;SDS011;61070;50.794;7.054;2022-08-19T00:07:38;16.75;;;11.05;;
72924;SDS011;61070;50.794;7.054;2022-08-19T00:10:05;16.05;;;11.55;;
72924;SDS011;61070;50.794;7.054;2022-08-19T00:12:31;16.10;;;10.85;;
72924;SDS011;61070;50.794;7.054;2022-08-19T00:14:56;17.88;;;10.88;;
72924;SDS011;61070;50.794;7.054;2022-08-19T00:17:21;16.95;;;9.88;;
72924;SDS011;61070;50.794;7.054;2022-08-19T00:19:47;14.57;;;11.23;;
72924;SDS011;61070;50.794;7.054;2022-08-19T00:22:12;19.63;;;10.82;;
72924;SDS011;61070;50.794;7.054;2022-08-19T00:24:38;17.17;;;11.95;;
72924;SDS011;61070;50.794;7.054;2022-08-19T00:27:03;13.40;;;10.88;;
72924;SDS011;61070;50.794;7.054;2022-08-19T00:29:29;17.95;;;11.20;;
72924;SDS011;61070;50.794;7.054;2022-08-19T00:31:55;15.63;;;11.63;;
72924;SDS011;61070;50.794;7.054;2022-08-19T00:34:23;21.48;;;11.57;;
72924;SDS011;61070;50.794;7.054;2022-08-19T00:36:49;27.58;;;12.02;;
72924;SDS011;61070;50.794;7.054;2022-08-19T00:39:15;19.25;;;11.40;;
72924;SDS011;61070;50.794;7.054;2022-08-19T00:41:42;14.98;;;11.90;;
72924;SDS011;61070;50.794;7.054;2022-08-19T00:44:21;13.25;;;11.25;;
72924;SDS011;61070;50.794;7.054;2022-08-19T00:46:49;18.80;;;11.88;;
72924;SDS011;61070;50.794;7.054;2022-08-19T00:49:16;16.52;;;11.65;;
72924;SDS011;61070;50.794;7.054;2022-08-19T00:51:47;16.73;;;11.98;;
72924;SDS011;61070;50.794;7.054;2022-08-19T00:54:15;20.85;;;12.15;;
72924;SDS011;61070;50.794;7.054;2022-08-19T00:56:41;14.80;;;11.07;;
72924;SDS011;61070;50.794;7.054;2022-08-19T00:59:07;12.82;;;10.52;;
72924;SDS011;61070;50.794;7.054;2022-08-19T01:01:38;13.80;;;11.10;;
72924;SDS011;61070;50.794;7.054;2022-08-19T01:04:05;13.68;;;10.88;;
72924;SDS011;61070;50.794;7.054;2022-08-19T01:06:32;18.42;;;11.10;;
72924;SDS011;61070;50.794;7.054;2022-08-19T01:08:58;14.65;;;11.07;;
72924;SDS011;61070;50.794;7.054;2022-08-19T01:11:25;18.23;;;11.00;;
72924;SDS011;61070;50.794;7.054;2022-08-19T01:13:51;15.43;;;11.07;;
72924;SDS011;61070;50.794;7.054;2022-08-19T01:16:19;13.23;;;9.82;;
72924;SDS011;61070;50.794;7.054;2022-08-19T01:18:46;15.65;;;11.20;;
72924;SDS011;61070;50.794;7.054;2022-08-19T01:21:18;18.65;;;12.68;;
72924;SDS011;61070;50.794;7.054;2022-08-19T01:23:51;15.10;;;11.23;;
72924;SDS011;61070;50.794;7.054;2022-08-19T01:26:18;15.77;;;11.32;;
72924;SDS011;61070;50.794;7.054;2022-08-19T01:28:45;16.05;;;11.93;;
72924;SDS011;61070;50.794;7.054;2022-08-19T01:31:16;16.67;;;12.05;;
72924;SDS011;61070;50.794;7.054;2022-08-19T01:33:44;19.55;;;12.50;;
72924;SDS011;61070;50.794;7.054;2022-08-19T01:36:12;20.45;;;13.68;;
72924;SDS011;61070;50.794;7.054;2022-08-19T01:38:41;19.33;;;12.73;;
72924;SDS011;61070;50.794;7.054;2022-08-19T01:41:08;15.27;;;10.93;;
72924;SDS011;61070;50.794;7.054;2022-08-19T01:43:36;12.50;;;11.20;;
72924;SDS011;61070;50.794;7.054;2022-08-19T01:46:02;13.93;;;10.82;;
72924;SDS011;61070;50.794;7.054;2022-08-19T01:48:32;21.15;;;12.48;;
72924;SDS011;61070;50.794;7.054;2022-08-19T01:51:06;18.88;;;12.82;;
72924;SDS011;61070;50.794;7.054;2022-08-19T01:53:32;15.88;;;12.38;;
72924;SDS011;61070;50.794;7.054;2022-08-19T01:55:58;17.02;;;13.10;;
72924;SDS011;61070;50.794;7.054;2022-08-19T01:58:25;23.50;;;12.20;;
72924;SDS011;61070;50.794;7.054;2022-08-19T02:00:55;18.83;;;13.50;;
72924;SDS011;61070;50.794;7.054;2022-08-19T02:03:20;15.80;;;13.25;;
72924;SDS011;61070;50.794;7.054;2022-08-19T02:05:46;17.67;;;12.88;;
72924;SDS011;61070;50.794;7.054;2022-08-19T02:08:11;19.90;;;13.07;;
72924;SDS011;61070;50.794;7.054;2022-08-19T02:10:41;16.88;;;12.45;;
72924;SDS011;61070;50.794;7.054;2022-08-19T02:13:08;17.67;;;13.55;;
72924;SDS011;61070;50.794;7.054;2022-08-19T02:15:34;19.02;;;12.77;;
72924;SDS011;61070;50.794;7.054;2022-08-19T02:17:59;18.02;;;13.60;;
72924;SDS011;61070;50.794;7.054;2022-08-19T02:20:25;17.95;;;12.20;;
72924;SDS011;61070;50.794;7.054;2022-08-19T02:22:50;21.50;;;13.73;;
72924;SDS011;61070;50.794;7.054;2022-08-19T02:25:15;19.15;;;13.07;;
72924;SDS011;61070;50.794;7.054;2022-08-19T02:27:41;18.13;;;12.98;;
72924;SDS011;61070;50.794;7.054;2022-08-19T02:30:08;22.73;;;12.80;;
72924;SDS011;61070;50.794;7.054;2022-08-19T02:32:36;19.52;;;12.95;;
72924;SDS011;61070;50.794;7.054;2022-08-19T02:35:02;17.58;;;12.80;;
72924;SDS011;61070;50.794;7.054;2022-08-19T02:37:28;19.63;;;14.23;;
72924;SDS011;61070;50.794;7.054;2022-08-19T02:40:12;23.42;;;14.13;;
72924;SDS011;61070;50.794;7.054;2022-08-19T02:42:37;20.10;;;15.10;;
72924;SDS011;61070;50.794;7.054;2022-08-19T02:45:02;24.80;;;16.40;;
72924;SDS011;61070;50.794;7.054;2022-08-19T02:47:30;17.67;;;13.95;;
72924;SDS011;61070;50.794;7.054;2022-08-19T02:49:55;19.42;;;15.48;;
72924;SDS011;61070;50.794;7.054;2022-08-19T02:52:21;21.70;;;15.40;;
72924;SDS011;61070;50.794;7.054;2022-08-19T02:54:48;21.25;;;15.95;;
72924;SDS011;61070;50.794;7.054;2022-08-19T02:57:14;22.63;;;15.15;;
72924;SDS011;61070;50.794;7.054;2022-08-19T02:59:39;24.00;;;15.15;;
72924;SDS011;61070;50.794;7.054;2022-08-19T03:02:05;22.67;;;15.23;;
72924;SDS011;61070;50.794;7.054;2022-08-19T03:04:30;16.45;;;14.35;;
72924;SDS011;61070;50.794;7.054;2022-08-19T03:06:55;22.92;;;16.15;;
72924;SDS011;61070;50.794;7.054;2022-08-19T03:09:21;27.33;;;15.07;;
72924;SDS011;61070;50.794;7.054;2022-08-19T03:11:46;20.33;;;16.60;;
72924;SDS011;61070;50.794;7.054;2022-08-19T03:14:12;18.95;;;16.27;;
72924;SDS011;61070;50.794;7.054;2022-08-19T03:16:45;24.67;;;17.60;;
72924;SDS011;61070;50.794;7.054;2022-08-19T03:19:13;23.83;;;16.20;;
72924;SDS011;61070;50.794;7.054;2022-08-19T03:21:42;22.65;;;17.67;;
72924;SDS011;61070;50.794;7.054;2022-08-19T03:24:09;27.88;;;18.27;;
72924;SDS011;61070;50.794;7.054;2022-08-19T03:26:43;23.65;;;18.80;;
72924;SDS011;61070;50.794;7.054;2022-08-19T03:29:10;22.60;;;16.00;;
72924;SDS011;61070;50.794;7.054;2022-08-19T03:31:37;24.67;;;17.73;;
72924;SDS011;61070;50.794;7.054;2022-08-19T03:34:04;21.90;;;17.45;;
72924;SDS011;61070;50.794;7.054;2022-08-19T03:36:29;24.60;;;17.58;;
72924;SDS011;61070;50.794;7.054;2022-08-19T03:38:57;23.08;;;17.52;;
72924;SDS011;61070;50.794;7.054;2022-08-19T03:41:26;24.05;;;18.90;;
72924;SDS011;61070;50.794;7.054;2022-08-19T03:43:53;25.45;;;19.50;;
72924;SDS011;61070;50.794;7.054;2022-08-19T03:46:20;29.20;;;19.77;;
72924;SDS011;61070;50.794;7.054;2022-08-19T03:48:49;25.67;;;20.88;;
72924;SDS011;61070;50.794;7.054;2022-08-19T03:51:20;22.40;;;19.42;;
72924;SDS011;61070;50.794;7.054;2022-08-19T03:53:49;28.95;;;21.08;;
72924;SDS011;61070;50.794;7.054;2022-08-19T03:56:15;27.77;;;21.08;;
72924;SDS011;61070;50.794;7.054;2022-08-19T03:58:40;28.27;;;20.83;;
72924;SDS011;61070;50.794;7.054;2022-08-19T04:01:10;30.60;;;21.95;;
72924;SDS011;61070;50.794;7.054;2022-08-19T04:03:37;27.90;;;21.75;;
72924;SDS011;61070;50.794;7.054;2022-08-19T04:08:35;27.65;;;21.40;;
72924;SDS011;61070;50.794;7.054;2022-08-19T04:11:01;31.10;;;23.10;;
72924;SDS011;61070;50.794;7.054;2022-08-19T04:13:26;28.85;;;21.27;;
72924;SDS011;61070;50.794;7.054;2022-08-19T04:15:52;38.20;;;24.20;;
72924;SDS011;61070;50.794;7.054;2022-08-19T04:18:18;31.75;;;22.88;;
72924;SDS011;61070;50.794;7.054;2022-08-19T04:20:44;41.95;;;25.88;;
72924;SDS011;61070;50.794;7.054;2022-08-19T04:23:12;32.70;;;24.25;;
72924;SDS011;61070;50.794;7.054;2022-08-19T04:25:39;38.83;;;26.92;;
72924;SDS011;61070;50.794;7.054;2022-08-19T04:28:06;32.67;;;26.60;;
72924;SDS011;61070;50.794;7.054;2022-08-19T04:30:44;37.70;;;27.40;;
72924;SDS011;61070;50.794;7.054;2022-08-19T04:33:13;38.03;;;27.63;;
72924;SDS011;61070;50.794;7.054;2022-08-19T04:35:41;39.97;;;29.30;;
72924;SDS011;61070;50.794;7.054;2022-08-19T04:38:08;37.67;;;28.00;;
72924;SDS011;61070;50.794;7.054;2022-08-19T04:40:34;37.55;;;28.55;;
72924;SDS011;61070;50.794;7.054;2022-08-19T04:43:23;39.77;;;30.40;;
72924;SDS011;61070;50.794;7.054;2022-08-19T04:45:49;43.88;;;31.05;;
72924;SDS011;61070;50.794;7.054;2022-08-19T04:48:15;38.65;;;30.05;;
72924;SDS011;61070;50.794;7.054;2022-08-19T04:50:41;41.58;;;30.70;;
72924;SDS011;61070;50.794;7.054;2022-08-19T04:53:08;41.20;;;31.40;;
72924;SDS011;61070;50.794;7.054;2022-08-19T04:55:33;42.00;;;32.10;;
72924;SDS011;61070;50.794;7.054;2022-08-19T04:58:00;46.22;;;33.10;;
72924;SDS011;61070;50.794;7.054;2022-08-19T05:00:27;47.17;;;32.13;;
72924;SDS011;61070;50.794;7.054;2022-08-19T05:02:52;50.13;;;34.28;;
72924;SDS011;61070;50.794;7.054;2022-08-19T05:05:18;50.17;;;33.38;;
72924;SDS011;61070;50.794;7.054;2022-08-19T05:07:44;46.67;;;34.10;;
72924;SDS011;61070;50.794;7.054;2022-08-19T05:10:10;44.78;;;33.33;;
72924;SDS011;61070;50.794;7.054;2022-08-19T05:12:36;45.78;;;34.70;;
72924;SDS011;61070;50.794;7.054;2022-08-19T05:15:02;43.28;;;33.35;;
72924;SDS011;61070;50.794;7.054;2022-08-19T05:17:28;50.10;;;33.45;;
72924;SDS011;61070;50.794;7.054;2022-08-19T05:19:54;50.78;;;34.78;;
72924;SDS011;61070;50.794;7.054;2022-08-19T05:22:39;48.30;;;34.78;;
72924;SDS011;61070;50.794;7.054;2022-08-19T05:25:07;43.00;;;33.83;;
72924;SDS011;61070;50.794;7.054;2022-08-19T05:27:34;48.58;;;34.55;;
72924;SDS011;61070;50.794;7.054;2022-08-19T05:30:00;48.63;;;35.15;;
72924;SDS011;61070;50.794;7.054;2022-08-19T05:32:26;48.45;;;35.42;;
72924;SDS011;61070;50.794;7.054;2022-08-19T05:34:52;50.97;;;36.83;;
72924;SDS011;61070;50.794;7.054;2022-08-19T05:37:18;52.53;;;36.42;;
72924;SDS011;61070;50.794;7.054;2022-08-19T05:39:43;58.50;;;38.47;;
72924;SDS011;61070;50.794;7.054;2022-08-19T05:42:10;53.17;;;37.08;;
72924;SDS011;61070;50.794;7.054;2022-08-19T05:44:37;60.45;;;41.60;;
72924;SDS011;61070;50.794;7.054;2022-08-19T05:47:08;51.95;;;37.50;;
72924;SDS011;61070;50.794;7.054;2022-08-19T05:49:33;53.42;;;38.30;;
72924;SDS011;61070;50.794;7.054;2022-08-19T05:52:02;50.85;;;36.67;;
72924;SDS011;61070;50.794;7.054;2022-08-19T05:54:29;57.58;;;38.97;;
72924;SDS011;61070;50.794;7.054;2022-08-19T05:56:54;59.05;;;41.08;;
72924;SDS011;61070;50.794;7.054;2022-08-19T05:59:20;60.00;;;38.38;;
72924;SDS011;61070;50.794;7.054;2022-08-19T06:01:47;56.03;;;38.00;;
72924;SDS011;61070;50.794;7.054;2022-08-19T06:04:17;53.90;;;36.60;;
72924;SDS011;61070;50.794;7.054;2022-08-19T06:06:48;54.05;;;37.55;;
72924;SDS011;61070;50.794;7.054;2022-08-19T06:09:16;56.35;;;36.83;;
72924;SDS011;61070;50.794;7.054;2022-08-19T06:11:46;55.78;;;37.35;;
72924;SDS011;61070;50.794;7.054;2022-08-19T06:14:16;54.75;;;38.35;;
72924;SDS011;61070;50.794;7.054;2022-08-19T06:16:44;54.40;;;37.28;;
72924;SDS011;61070;50.794;7.054;2022-08-19T06:19:13;50.75;;;38.17;;
72924;SDS011;61070;50.794;7.054;2022-08-19T06:21:42;57.17;;;37.33;;
72924;SDS011;61070;50.794;7.054;2022-08-19T06:24:10;65.18;;;40.78;;
72924;SDS011;61070;50.794;7.054;2022-08-19T06:26:39;56.00;;;39.78;;
72924;SDS011;61070;50.794;7.054;2022-08-19T06:29:06;55.13;;;38.97;;
72924;SDS011;61070;50.794;7.054;2022-08-19T06:31:34;60.22;;;39.95;;
72924;SDS011;61070;50.794;7.054;2022-08-19T06:34:01;59.15;;;39.20;;
72924;SDS011;61070;50.794;7.054;2022-08-19T06:36:29;58.08;;;40.78;;
72924;SDS011;61070;50.794;7.054;2022-08-19T06:38:58;65.22;;;40.17;;
72924;SDS011;61070;50.794;7.054;2022-08-19T06:41:26;65.20;;;39.47;;
72924;SDS011;61070;50.794;7.054;2022-08-19T06:43:52;56.85;;;39.05;;
72924;SDS011;61070;50.794;7.054;2022-08-19T06:46:18;57.25;;;38.47;;
72924;SDS011;61070;50.794;7.054;2022-08-19T06:48:44;61.08;;;40.13;;
72924;SDS011;61070;50.794;7.054;2022-08-19T06:51:10;57.80;;;39.80;;
72924;SDS011;61070;50.794;7.054;2022-08-19T06:53:36;62.40;;;40.03;;
72924;SDS011;61070;50.794;7.054;2022-08-19T06:56:01;59.55;;;40.80;;
72924;SDS011;61070;50.794;7.054;2022-08-19T06:58:29;62.60;;;39.28;;
72924;SDS011;61070;50.794;7.054;2022-08-19T07:00:59;59.25;;;39.65;;
72924;SDS011;61070;50.794;7.054;2022-08-19T07:03:26;64.20;;;41.05;;
72924;SDS011;61070;50.794;7.054;2022-08-19T07:05:53;54.53;;;38.55;;
72924;SDS011;61070;50.794;7.054;2022-08-19T07:08:19;53.97;;;38.45;;
72924;SDS011;61070;50.794;7.054;2022-08-19T07:10:45;57.47;;;38.30;;
72924;SDS011;61070;50.794;7.054;2022-08-19T07:13:10;56.85;;;36.03;;
72924;SDS011;61070;50.794;7.054;2022-08-19T07:15:36;62.50;;;37.17;;
72924;SDS011;61070;50.794;7.054;2022-08-19T07:18:02;57.30;;;37.35;;
72924;SDS011;61070;50.794;7.054;2022-08-19T07:20:28;54.30;;;36.72;;
72924;SDS011;61070;50.794;7.054;2022-08-19T07:22:53;51.80;;;35.00;;
72924;SDS011;61070;50.794;7.054;2022-08-19T07:25:18;58.40;;;34.92;;
72924;SDS011;61070;50.794;7.054;2022-08-19T07:27:45;56.85;;;34.35;;
72924;SDS011;61070;50.794;7.054;2022-08-19T07:30:13;60.20;;;34.85;;
72924;SDS011;61070;50.794;7.054;2022-08-19T07:32:39;48.47;;;33.10;;
72924;SDS011;61070;50.794;7.054;2022-08-19T07:35:05;58.72;;;33.83;;
72924;SDS011;61070;50.794;7.054;2022-08-19T07:37:31;50.05;;;33.13;;
72924;SDS011;61070;50.794;7.054;2022-08-19T07:39:57;53.00;;;34.92;;
72924;SDS011;61070;50.794;7.054;2022-08-19T07:42:22;46.83;;;31.70;;
72924;SDS011;61070;50.794;7.054;2022-08-19T07:44:47;49.20;;;32.63;;
72924;SDS011;61070;50.794;7.054;2022-08-19T07:47:13;46.42;;;31.10;;
72924;SDS011;61070;50.794;7.054;2022-08-19T07:49:40;47.30;;;30.15;;
72924;SDS011;61070;50.794;7.054;2022-08-19T07:52:07;49.47;;;32.03;;
72924;SDS011;61070;50.794;7.054;2022-08-19T07:54:35;49.05;;;32.70;;
72924;SDS011;61070;50.794;7.054;2022-08-19T07:57:02;54.28;;;32.33;;
72924;SDS011;61070;50.794;7.054;2022-08-19T07:59:28;52.72;;;31.90;;
72924;SDS011;61070;50.794;7.054;2022-08-19T08:01:54;49.63;;;30.20;;
72924;SDS011;61070;50.794;7.054;2022-08-19T08:04:21;48.58;;;30.02;;
72924;SDS011;61070;50.794;7.054;2022-08-19T08:07:05;55.78;;;32.25;;
72924;SDS011;61070;50.794;7.054;2022-08-19T08:09:51;51.58;;;31.25;;
72924;SDS011;61070;50.794;7.054;2022-08-19T08:12:18;51.20;;;31.25;;
72924;SDS011;61070;50.794;7.054;2022-08-19T08:14:50;46.90;;;32.90;;
72924;SDS011;61070;50.794;7.054;2022-08-19T08:17:20;46.05;;;30.27;;
72924;SDS011;61070;50.794;7.054;2022-08-19T08:19:47;45.05;;;30.90;;
72924;SDS011;61070;50.794;7.054;2022-08-19T08:22:15;44.85;;;28.35;;
72924;SDS011;61070;50.794;7.054;2022-08-19T08:25:03;37.08;;;25.83;;
72924;SDS011;61070;50.794;7.054;2022-08-19T08:27:30;46.25;;;30.05;;
72924;SDS011;61070;50.794;7.054;2022-08-19T08:29:56;43.22;;;26.25;;
72924;SDS011;61070;50.794;7.054;2022-08-19T08:32:22;39.63;;;26.63;;
72924;SDS011;61070;50.794;7.054;2022-08-19T08:34:48;42.20;;;26.33;;
72924;SDS011;61070;50.794;7.054;2022-08-19T08:37:13;45.88;;;26.23;;
72924;SDS011;61070;50.794;7.054;2022-08-19T08:39:39;38.00;;;23.95;;
72924;SDS011;61070;50.794;7.054;2022-08-19T08:42:17;42.22;;;28.25;;
72924;SDS011;61070;50.794;7.054;2022-08-19T08:44:53;41.80;;;26.10;;
72924;SDS011;61070;50.794;7.054;2022-08-19T08:47:23;45.97;;;28.17;;
72924;SDS011;61070;50.794;7.054;2022-08-19T08:49:57;56.55;;;31.20;;
72924;SDS011;61070;50.794;7.054;2022-08-19T08:52:28;53.38;;;30.20;;
72924;SDS011;61070;50.794;7.054;2022-08-19T08:54:57;53.60;;;33.20;;
72924;SDS011;61070;50.794;7.054;2022-08-19T09:00:03;48.42;;;32.13;;
72924;SDS011;61070;50.794;7.054;2022-08-19T09:02:31;50.22;;;31.73;;
72924;SDS011;61070;50.794;7.054;2022-08-19T09:04:56;48.60;;;32.55;;
72924;SDS011;61070;50.794;7.054;2022-08-19T09:09:55;57.63;;;34.35;;
72924;SDS011;61070;50.794;7.054;2022-08-19T09:12:38;60.75;;;38.03;;
72924;SDS011;61070;50.794;7.054;2022-08-19T09:15:05;60.90;;;40.15;;
72924;SDS011;61070;50.794;7.054;2022-08-19T09:17:34;68.18;;;39.88;;
72924;SDS011;61070;50.794;7.054;2022-08-19T09:22:35;66.25;;;40.83;;
72924;SDS011;61070;50.794;7.054;2022-08-19T09:25:02;61.95;;;38.58;;
72924;SDS011;61070;50.794;7.054;2022-08-19T09:27:29;63.17;;;39.42;;
72924;SDS011;61070;50.794;7.054;2022-08-19T09:29:57;62.20;;;39.88;;
72924;SDS011;61070;50.794;7.054;2022-08-19T09:32:22;75.80;;;45.05;;
72924;SDS011;61070;50.794;7.054;2022-08-19T09:34:50;75.03;;;42.10;;
72924;SDS011;61070;50.794;7.054;2022-08-19T09:37:17;73.50;;;42.88;;
72924;SDS011;61070;50.794;7.054;2022-08-19T09:39:43;65.68;;;40.38;;
72924;SDS011;61070;50.794;7.054;2022-08-19T09:42:09;66.93;;;39.70;;
72924;SDS011;61070;50.794;7.054;2022-08-19T09:44:40;64.68;;;41.75;;
72924;SDS011;61070;50.794;7.054;2022-08-19T09:47:06;58.10;;;37.45;;
72924;SDS011;61070;50.794;7.054;2022-08-19T09:49:32;66.03;;;39.35;;
72924;SDS011;61070;50.794;7.054;2022-08-19T09:51:58;66.75;;;40.85;;
72924;SDS011;61070;50.794;7.054;2022-08-19T09:54:24;66.85;;;42.22;;
72924;SDS011;61070;50.794;7.054;2022-08-19T09:56:50;68.38;;;40.58;;
72924;SDS011;61070;50.794;7.054;2022-08-19T09:59:16;65.68;;;39.10;;
72924;SDS011;61070;50.794;7.054;2022-08-19T10:01:41;61.97;;;39.13;;
72924;SDS011;61070;50.794;7.054;2022-08-19T10:04:07;63.88;;;40.38;;
72924;SDS011;61070;50.794;7.054;2022-08-19T10:06:36;52.70;;;34.53;;
72924;SDS011;61070;50.794;7.054;2022-08-19T10:09:03;47.08;;;30.00;;
72924;SDS011;61070;50.794;7.054;2022-08-19T10:11:31;38.95;;;25.30;;
72924;SDS011;61070;50.794;7.054;2022-08-19T10:13:57;42.05;;;26.33;;
72924;SDS011;61070;50.794;7.054;2022-08-19T10:16:24;39.78;;;25.35;;
72924;SDS011;61070;50.794;7.054;2022-08-19T10:18:50;32.15;;;22.50;;
72924;SDS011;61070;50.794;7.054;2022-08-19T10:21:18;30.27;;;21.75;;
72924;SDS011;61070;50.794;7.054;2022-08-19T10:23:49;36.95;;;25.05;;
72924;SDS011;61070;50.794;7.054;2022-08-19T10:26:21;31.50;;;21.58;;
72924;SDS011;61070;50.794;7.054;2022-08-19T10:28:49;32.53;;;22.80;;
72924;SDS011;61070;50.794;7.054;2022-08-19T10:31:15;31.15;;;18.40;;
72924;SDS011;61070;50.794;7.054;2022-08-19T10:33:44;35.92;;;20.48;;
72924;SDS011;61070;50.794;7.054;2022-08-19T10:36:12;27.70;;;19.65;;
72924;SDS011;61070;50.794;7.054;2022-08-19T10:38:40;29.17;;;20.88;;
72924;SDS011;61070;50.794;7.054;2022-08-19T10:41:09;28.75;;;19.23;;
72924;SDS011;61070;50.794;7.054;2022-08-19T10:43:36;25.20;;;16.90;;
72924;SDS011;61070;50.794;7.054;2022-08-19T10:46:03;28.92;;;20.85;;
72924;SDS011;61070;50.794;7.054;2022-08-19T10:48:30;28.70;;;20.67;;
72924;SDS011;61070;50.794;7.054;2022-08-19T10:50:57;25.40;;;17.15;;
72924;SDS011;61070;50.794;7.054;2022-08-19T10:53:41;26.60;;;19.98;;
72924;SDS011;61070;50.794;7.054;2022-08-19T10:56:06;24.60;;;16.93;;
72924;SDS011;61070;50.794;7.054;2022-08-19T10:58:50;27.15;;;16.52;;
72924;SDS011;61070;50.794;7.054;2022-08-19T11:01:15;23.10;;;16.65;;
72924;SDS011;61070;50.794;7.054;2022-08-19T11:03:40;23.65;;;16.17;;
72924;SDS011;61070;50.794;7.054;2022-08-19T11:06:06;25.30;;;16.13;;
72924;SDS011;61070;50.794;7.054;2022-08-19T11:08:34;24.23;;;15.77;;
72924;SDS011;61070;50.794;7.054;2022-08-19T11:11:03;22.33;;;15.95;;
72924;SDS011;61070;50.794;7.054;2022-08-19T11:13:30;30.45;;;18.00;;
72924;SDS011;61070;50.794;7.054;2022-08-19T11:16:03;26.43;;;15.40;;
72924;SDS011;61070;50.794;7.054;2022-08-19T11:18:34;25.52;;;15.57;;
72924;SDS011;61070;50.794;7.054;2022-08-19T11:21:07;24.25;;;17.50;;
72924;SDS011;61070;50.794;7.054;2022-08-19T11:23:39;20.85;;;14.48;;
72924;SDS011;61070;50.794;7.054;2022-08-19T11:26:05;21.40;;;13.63;;
72924;SDS011;61070;50.794;7.054;2022-08-19T11:28:30;22.25;;;15.20;;
72924;SDS011;61070;50.794;7.054;2022-08-19T11:30:56;20.83;;;13.65;;
72924;SDS011;61070;50.794;7.054;2022-08-19T11:33:21;19.10;;;13.52;;
72924;SDS011;61070;50.794;7.054;2022-08-19T11:35:47;21.58;;;13.15;;
72924;SDS011;61070;50.794;7.054;2022-08-19T11:38:12;20.45;;;12.98;;
72924;SDS011;61070;50.794;7.054;2022-08-19T11:40:39;23.13;;;16.13;;
72924;SDS011;61070;50.794;7.054;2022-08-19T11:43:06;24.08;;;13.75;;
72924;SDS011;61070;50.794;7.054;2022-08-19T11:45:32;15.85;;;12.30;;
72924;SDS011;61070;50.794;7.054;2022-08-19T11:47:57;21.15;;;15.43;;
72924;SDS011;61070;50.794;7.054;2022-08-19T11:50:23;17.75;;;14.30;;
72924;SDS011;61070;50.794;7.054;2022-08-19T11:52:48;15.02;;;12.52;;
72924;SDS011;61070;50.794;7.054;2022-08-19T11:55:14;18.90;;;13.60;;
72924;SDS011;61070;50.794;7.054;2022-08-19T11:57:40;16.15;;;12.30;;
72924;SDS011;61070;50.794;7.054;2022-08-19T12:00:08;15.45;;;11.98;;
72924;SDS011;61070;50.794;7.054;2022-08-19T12:02:36;20.80;;;15.07;;
72924;SDS011;61070;50.794;7.054;2022-08-19T12:05:01;17.90;;;13.20;;
72924;SDS011;61070;50.794;7.054;2022-08-19T12:07:27;18.23;;;12.05;;
72924;SDS011;61070;50.794;7.054;2022-08-19T12:09:55;19.85;;;12.80;;
72924;SDS011;61070;50.794;7.054;2022-08-19T12:12:21;17.80;;;13.35;;
72924;SDS011;61070;50.794;7.054;2022-08-19T12:14:46;15.88;;;11.40;;
72924;SDS011;61070;50.794;7.054;2022-08-19T12:17:12;20.17;;;11.63;;
72924;SDS011;61070;50.794;7.054;2022-08-19T12:19:38;18.00;;;11.77;;
72924;SDS011;61070;50.794;7.054;2022-08-19T12:22:04;22.52;;;13.18;;
72924;SDS011;61070;50.794;7.054;2022-08-19T12:24:31;18.55;;;14.93;;
72924;SDS011;61070;50.794;7.054;2022-08-19T12:26:57;16.48;;;12.25;;
72924;SDS011;61070;50.794;7.054;2022-08-19T12:29:23;14.85;;;11.13;;
72924;SDS011;61070;50.794;7.054;2022-08-19T12:31:54;20.02;;;13.73;;
72924;SDS011;61070;50.794;7.054;2022-08-19T12:34:26;20.00;;;13.45;;
72924;SDS011;61070;50.794;7.054;2022-08-19T12:36:55;24.17;;;14.18;;
72924;SDS011;61070;50.794;7.054;2022-08-19T12:39:22;21.98;;;16.05;;
72924;SDS011;61070;50.794;7.054;2022-08-19T12:41:48;23.65;;;13.55;;
72924;SDS011;61070;50.794;7.054;2022-08-19T12:44:14;22.83;;;14.50;;
72924;SDS011;61070;50.794;7.054;2022-08-19T12:46:39;19.15;;;14.85;;
72924;SDS011;61070;50.794;7.054;2022-08-19T12:49:04;22.30;;;13.50;;
72924;SDS011;61070;50.794;7.054;2022-08-19T12:51:30;15.90;;;12.65;;
72924;SDS011;61070;50.794;7.054;2022-08-19T12:53:56;22.58;;;15.35;;
72924;SDS011;61070;50.794;7.054;2022-08-19T12:56:21;16.33;;;12.52;;
72924;SDS011;61070;50.794;7.054;2022-08-19T12:58:47;16.03;;;12.17;;
72924;SDS011;61070;50.794;7.054;2022-08-19T13:01:13;16.48;;;10.55;;
72924;SDS011;61070;50.794;7.054;2022-08-19T13:03:39;14.10;;;10.63;;
72924;SDS011;61070;50.794;7.054;2022-08-19T13:06:05;16.20;;;10.57;;
72924;SDS011;61070;50.794;7.054;2022-08-19T13:08:31;19.00;;;12.35;;
72924;SDS011;61070;50.794;7.054;2022-08-19T13:10:57;22.85;;;12.05;;
72924;SDS011;61070;50.794;7.054;2022-08-19T13:13:23;13.75;;;11.02;;
72924;SDS011;61070;50.794;7.054;2022-08-19T13:15:50;17.98;;;11.20;;
72924;SDS011;61070;50.794;7.054;2022-08-19T13:18:15;10.73;;;8.68;;
72924;SDS011;61070;50.794;7.054;2022-08-19T13:20:41;13.10;;;9.10;;
72924;SDS011;61070;50.794;7.054;2022-08-19T13:23:07;15.93;;;11.75;;
72924;SDS011;61070;50.794;7.054;2022-08-19T13:25:33;20.38;;;14.70;;
72924;SDS011;61070;50.794;7.054;2022-08-19T13:27:59;17.58;;;12.32;;
72924;SDS011;61070;50.794;7.054;2022-08-19T13:30:25;15.88;;;12.20;;
72924;SDS011;61070;50.794;7.054;2022-08-19T13:33:09;19.08;;;11.88;;
72924;SDS011;61070;50.794;7.054;2022-08-19T13:35:53;13.43;;;9.77;;
72924;SDS011;61070;50.794;7.054;2022-08-19T13:38:22;15.57;;;9.20;;
72924;SDS011;61070;50.794;7.054;2022-08-19T13:40:49;17.20;;;10.90;;
72924;SDS011;61070;50.794;7.054;2022-08-19T13:43:16;11.68;;;8.98;;
72924;SDS011;61070;50.794;7.054;2022-08-19T13:45:43;16.52;;;10.25;;
72924;SDS011;61070;50.794;7.054;2022-08-19T13:48:08;13.07;;;9.32;;
72924;SDS011;61070;50.794;7.054;2022-08-19T13:50:41;15.65;;;10.43;;
72924;SDS011;61070;50.794;7.054;2022-08-19T13:53:09;15.23;;;9.30;;
72924;SDS011;61070;50.794;7.054;2022-08-19T13:55:42;15.55;;;9.10;;
72924;SDS011;61070;50.794;7.054;2022-08-19T13:58:08;11.95;;;9.32;;
72924;SDS011;61070;50.794;7.054;2022-08-19T14:00:37;13.10;;;9.88;;
72924;SDS011;61070;50.794;7.054;2022-08-19T14:03:05;11.45;;;7.30;;
72924;SDS011;61070;50.794;7.054;2022-08-19T14:05:31;12.77;;;7.18;;
72924;SDS011;61070;50.794;7.054;2022-08-19T14:07:57;11.02;;;7.80;;
72924;SDS011;61070;50.794;7.054;2022-08-19T14:10:23;14.45;;;8.45;;
72924;SDS011;61070;50.794;7.054;2022-08-19T14:12:52;15.40;;;9.43;;
72924;SDS011;61070;50.794;7.054;2022-08-19T14:15:20;17.63;;;9.98;;
72924;SDS011;61070;50.794;7.054;2022-08-19T14:17:46;11.98;;;9.45;;
72924;SDS011;61070;50.794;7.054;2022-08-19T14:20:13;16.60;;;10.18;;
72924;SDS011;61070;50.794;7.054;2022-08-19T14:22:40;16.98;;;10.68;;
72924;SDS011;61070;50.794;7.054;2022-08-19T14:25:07;15.77;;;10.32;;
72924;SDS011;61070;50.794;7.054;2022-08-19T14:27:37;15.82;;;10.15;;
72924;SDS011;61070;50.794;7.054;2022-08-19T14:30:06;12.88;;;9.23;;
72924;SDS011;61070;50.794;7.054;2022-08-19T14:32:33;13.32;;;9.48;;
72924;SDS011;61070;50.794;7.054;2022-08-19T14:34:59;19.30;;;10.75;;